createdAt,value
2018-02-22T00:00:19.376Z,0.94
2018-02-22T00:01:19.377Z,0.96
2018-02-22T00:02:19.378Z,1.00
2018-02-22T00:03:19.373Z,0.97
2018-02-22T00:04:19.390Z,0.96
2018-02-22T00:05:19.378Z,0.92
2018-02-22T00:06:19.381Z,0.83
2018-02-22T00:07:19.378Z,0.92
2018-02-22T00:08:19.376Z,0.89
2018-02-22T00:09:19.380Z,0.85
2018-02-22T00:10:19.373Z,0.89
2018-02-22T00:11:19.374Z,0.94
2018-02-22T00:12:19.379Z,0.89
2018-02-22T00:13:19.378Z,0.94
2018-02-22T00:14:19.373Z,0.88
2018-02-22T00:15:19.373Z,0.88
2018-02-22T00:16:19.379Z,0.88
2018-02-22T00:17:19.379Z,0.83
2018-02-22T00:18:19.378Z,0.88
2018-02-22T00:19:19.372Z,0.97
2018-02-22T00:20:19.374Z,0.96
2018-02-22T00:21:19.377Z,0.96
2018-02-22T00:22:19.374Z,0.85
2018-02-22T00:23:19.385Z,0.89
2018-02-22T00:24:19.376Z,0.89
2018-02-22T00:25:19.375Z,0.89
2018-02-22T00:26:19.378Z,0.89
2018-02-22T00:27:19.377Z,0.88
2018-02-22T00:28:19.370Z,0.88
2018-02-22T00:29:19.372Z,0.82
2018-02-22T00:30:19.379Z,0.83
2018-02-22T00:31:19.380Z,0.85
2018-02-22T00:32:19.375Z,0.85
2018-02-22T00:33:19.377Z,0.80
2018-02-22T00:34:19.376Z,0.76
2018-02-22T00:35:19.379Z,0.80
2018-02-22T00:36:19.373Z,0.76
2018-02-22T00:37:19.377Z,0.76
2018-02-22T00:38:19.372Z,0.72
2018-02-22T00:39:19.377Z,0.76
2018-02-22T00:40:19.377Z,0.72
2018-02-22T00:41:19.378Z,0.76
2018-02-22T00:42:19.382Z,0.79
2018-02-22T00:43:19.375Z,0.72
2018-02-22T00:44:19.375Z,0.72
2018-02-22T00:45:19.377Z,0.79
2018-02-22T00:46:19.371Z,0.85
2018-02-22T00:47:19.373Z,0.76
2018-02-22T00:48:19.375Z,0.80
2018-02-22T00:49:19.377Z,0.78
2018-02-22T00:50:19.372Z,0.72
2018-02-22T00:51:19.373Z,0.71
2018-02-22T00:52:19.378Z,0.75
2018-02-22T00:53:19.372Z,0.78
2018-02-22T00:54:19.374Z,0.71
2018-02-22T00:55:19.375Z,0.70
2018-02-22T00:56:19.374Z,0.75
2018-02-22T00:57:19.376Z,0.75
2018-02-22T00:58:19.373Z,0.78
2018-02-22T00:59:19.375Z,0.76
2018-02-22T01:00:19.374Z,0.79
2018-02-22T01:01:19.376Z,0.86
2018-02-22T01:02:19.370Z,0.78
2018-02-22T01:03:19.375Z,0.76
2018-02-22T01:04:19.372Z,0.70
2018-02-22T01:05:19.373Z,0.72
2018-02-22T01:06:19.378Z,0.75
2018-02-22T01:07:19.371Z,0.72
2018-02-22T01:08:19.372Z,0.76
2018-02-22T01:09:19.374Z,0.71
2018-02-22T01:10:19.376Z,0.71
2018-02-22T01:11:19.379Z,0.64
2018-02-22T01:12:19.370Z,0.65
2018-02-22T01:13:19.369Z,0.76
2018-02-22T01:14:19.379Z,0.76
2018-02-22T01:15:19.372Z,0.76
2018-02-22T01:16:19.373Z,0.72
2018-02-22T01:17:19.372Z,0.79
2018-02-22T01:18:19.380Z,0.72
2018-02-22T01:19:19.373Z,0.70
2018-02-22T01:20:19.373Z,0.72
2018-02-22T01:21:19.378Z,0.68
2018-02-22T01:22:19.369Z,0.79
2018-02-22T01:23:19.374Z,0.68
2018-02-22T01:24:19.370Z,0.60
2018-02-22T01:25:19.374Z,0.60
2018-02-22T01:26:19.376Z,0.62
2018-02-22T01:27:19.372Z,0.61
2018-02-22T01:28:19.370Z,0.67
2018-02-22T01:29:19.368Z,0.58
2018-02-22T01:30:19.375Z,0.64
2018-02-22T01:31:19.370Z,0.61
2018-02-22T01:32:19.372Z,0.64
2018-02-22T01:33:19.366Z,0.67
2018-02-22T01:34:20.218Z,0.51
2018-02-22T01:35:19.373Z,0.49
2018-02-22T01:36:19.371Z,0.51
2018-02-22T01:37:19.371Z,0.57
2018-02-22T01:38:19.369Z,0.57
2018-02-22T01:39:19.368Z,0.52
2018-02-22T01:40:19.377Z,0.53
2018-02-22T01:41:19.369Z,0.58
2018-02-22T01:42:19.363Z,0.51
2018-02-22T01:43:19.365Z,0.48
2018-02-22T01:44:19.371Z,0.41
2018-02-22T01:45:19.369Z,0.39
2018-02-22T01:46:19.366Z,0.49
2018-02-22T01:47:19.373Z,0.43
2018-02-22T01:48:19.368Z,0.41
2018-02-22T01:49:19.370Z,0.46
2018-02-22T01:50:19.367Z,0.46
2018-02-22T01:51:19.369Z,0.39
2018-02-22T01:52:19.365Z,0.48
2018-02-22T01:53:19.367Z,0.45
2018-02-22T01:54:19.383Z,0.46
2018-02-22T01:55:19.367Z,0.46
2018-02-22T01:56:19.367Z,0.48
2018-02-22T01:57:19.368Z,0.42
2018-02-22T01:58:19.364Z,0.43
2018-02-22T01:59:19.363Z,0.46
2018-02-22T02:00:19.367Z,0.46
2018-02-22T02:01:19.361Z,0.46
2018-02-22T02:02:19.369Z,0.46
2018-02-22T02:03:19.368Z,0.48
2018-02-22T02:04:19.362Z,0.39
2018-02-22T02:05:19.361Z,0.41
2018-02-22T02:06:19.364Z,0.36
2018-02-22T02:07:19.365Z,0.45
2018-02-22T02:08:19.362Z,0.43
2018-02-22T02:09:19.357Z,0.42
2018-02-22T02:10:19.362Z,0.43
2018-02-22T02:11:19.361Z,0.41
2018-02-22T02:12:20.224Z,0.45
2018-02-22T02:13:19.361Z,0.38
2018-02-22T02:14:19.360Z,0.41
2018-02-22T02:15:19.358Z,0.46
2018-02-22T02:16:19.362Z,0.42
2018-02-22T02:17:19.360Z,0.36
2018-02-22T02:18:20.249Z,0.34
2018-02-22T02:19:21.029Z,0.39
2018-02-22T02:20:20.162Z,0.36
2018-02-22T02:21:19.959Z,0.42
2018-02-22T02:22:19.356Z,0.38
2018-02-22T02:23:19.350Z,0.33
2018-02-22T02:24:19.357Z,0.38
2018-02-22T02:25:19.354Z,0.36
2018-02-22T02:26:19.353Z,0.41
2018-02-22T02:27:19.355Z,0.33
2018-02-22T02:28:19.350Z,0.41
2018-02-22T02:29:19.355Z,0.36
2018-02-22T02:30:19.354Z,0.33
2018-02-22T02:31:19.356Z,0.39
2018-02-22T02:32:19.354Z,0.39
2018-02-22T02:33:19.355Z,0.36
2018-02-22T02:34:19.351Z,0.39
2018-02-22T02:35:19.354Z,0.38
2018-02-22T02:36:19.351Z,0.31
2018-02-22T02:37:19.353Z,0.28
2018-02-22T02:38:19.347Z,0.36
2018-02-22T02:39:19.352Z,0.34
2018-02-22T02:40:19.350Z,0.38
2018-02-22T02:41:19.351Z,0.39
2018-02-22T02:42:19.349Z,0.39
2018-02-22T02:43:19.351Z,0.36
2018-02-22T02:44:19.351Z,0.31
2018-02-22T02:45:19.352Z,0.34
2018-02-22T02:46:19.346Z,0.34
2018-02-22T02:47:19.385Z,0.34
2018-02-22T02:48:19.348Z,0.25
2018-02-22T02:49:19.348Z,0.28
2018-02-22T02:50:19.348Z,0.25
2018-02-22T02:51:19.349Z,0.30
2018-02-22T02:52:19.346Z,0.28
2018-02-22T02:53:19.344Z,0.27
2018-02-22T02:54:19.347Z,0.28
2018-02-22T02:55:19.343Z,0.31
2018-02-22T02:56:19.345Z,0.28
2018-02-22T02:57:19.343Z,0.31
2018-02-22T02:58:19.343Z,0.25
2018-02-22T02:59:19.338Z,0.27
2018-02-22T03:00:19.342Z,0.28
2018-02-22T03:01:19.341Z,0.31
2018-02-22T03:02:19.344Z,0.28
2018-02-22T03:03:19.335Z,0.27
2018-02-22T03:04:19.345Z,0.31
2018-02-22T03:05:19.339Z,0.33
2018-02-22T03:06:19.333Z,0.25
2018-02-22T03:07:19.335Z,0.27
2018-02-22T03:08:19.338Z,0.27
2018-02-22T03:09:19.337Z,0.28
2018-02-22T03:10:19.336Z,0.27
2018-02-22T03:11:19.333Z,0.24
2018-02-22T03:12:19.332Z,0.27
2018-02-22T03:13:19.332Z,0.31
2018-02-22T03:14:19.335Z,0.23
2018-02-22T03:15:19.329Z,0.27
2018-02-22T03:16:19.333Z,0.30
2018-02-22T03:17:19.329Z,0.30
2018-02-22T03:18:19.334Z,0.28
2018-02-22T03:19:19.330Z,0.30
2018-02-22T03:20:19.331Z,0.23
2018-02-22T03:21:19.325Z,0.27
2018-02-22T03:22:19.330Z,0.28
2018-02-22T03:23:19.333Z,0.30
2018-02-22T03:24:19.333Z,0.23
2018-02-22T03:25:19.322Z,0.27
2018-02-22T03:26:19.330Z,0.25
2018-02-22T03:27:19.325Z,0.25
2018-02-22T03:28:19.325Z,0.21
2018-02-22T03:29:19.323Z,0.21
2018-02-22T03:30:19.326Z,0.28
2018-02-22T03:31:19.328Z,0.24
2018-02-22T03:32:19.326Z,0.24
2018-02-22T03:33:19.318Z,0.24
2018-02-22T03:34:19.327Z,0.12
2018-02-22T03:35:19.323Z,0.15
2018-02-22T03:36:19.321Z,0.20
2018-02-22T03:37:19.323Z,0.18
2018-02-22T03:38:19.318Z,0.20
2018-02-22T03:39:19.323Z,0.20
2018-02-22T03:40:19.320Z,0.18
2018-02-22T03:41:19.326Z,0.18
2018-02-22T03:42:19.316Z,0.21
2018-02-22T03:43:19.319Z,0.20
2018-02-22T03:44:19.316Z,0.21
2018-02-22T03:45:19.326Z,0.21
2018-02-22T03:46:19.319Z,0.28
2018-02-22T03:47:19.312Z,0.16
2018-02-22T03:48:19.322Z,0.25
2018-02-22T03:49:19.320Z,0.12
2018-02-22T03:50:19.311Z,0.18
2018-02-22T03:51:19.315Z,0.15
2018-02-22T03:52:19.311Z,0.18
2018-02-22T03:53:19.312Z,0.12
2018-02-22T03:54:19.314Z,0.06
2018-02-22T03:55:19.313Z,0.03
2018-02-22T03:56:19.317Z,0.06
2018-02-22T03:57:19.308Z,0.12
2018-02-22T03:58:19.315Z,0.15
2018-02-22T03:59:19.308Z,0.07
2018-02-22T04:00:19.309Z,0.09
2018-02-22T04:01:19.305Z,0.09
2018-02-22T04:02:19.307Z,0.05
2018-02-22T04:03:19.304Z,0.05
2018-02-22T04:04:19.308Z,0.09
2018-02-22T04:05:19.315Z,0.06
2018-02-22T04:06:19.306Z,0.02
2018-02-22T04:07:19.307Z,0.06
2018-02-22T04:08:19.307Z,0.06
2018-02-22T04:09:19.304Z,0.00
2018-02-22T04:10:19.305Z,-0.05
2018-02-22T04:11:19.305Z,0.00
2018-02-22T04:12:19.304Z,-0.05
2018-02-22T04:13:19.302Z,0.02
2018-02-22T04:14:19.301Z,0.05
2018-02-22T04:15:19.303Z,-0.01
2018-02-22T04:16:19.303Z,0.02
2018-02-22T04:17:19.298Z,0.02
2018-02-22T04:18:19.309Z,-0.12
2018-02-22T04:19:19.304Z,0.03
2018-02-22T04:20:20.245Z,-0.08
2018-02-22T04:21:19.354Z,0.02
2018-02-22T04:22:19.305Z,-0.08
2018-02-22T04:23:19.296Z,-0.19
2018-02-22T04:24:19.299Z,0.02
2018-02-22T04:25:19.297Z,-0.16
2018-02-22T04:26:19.295Z,-0.13
2018-02-22T04:27:19.292Z,-0.06
2018-02-22T04:28:19.294Z,-0.09
2018-02-22T04:29:19.296Z,-0.05
2018-02-22T04:30:19.291Z,-0.13
2018-02-22T04:31:19.291Z,-0.16
2018-02-22T04:32:19.300Z,-0.22
2018-02-22T04:33:19.292Z,-0.18
2018-02-22T04:34:19.289Z,-0.15
2018-02-22T04:35:19.288Z,-0.18
2018-02-22T04:36:19.288Z,-0.16
2018-02-22T04:37:19.285Z,-0.22
2018-02-22T04:38:19.285Z,-0.16
2018-02-22T04:39:19.285Z,-0.19
2018-02-22T04:40:19.282Z,-0.18
2018-02-22T04:41:19.282Z,-0.16
2018-02-22T04:42:19.281Z,-0.16
2018-02-22T04:43:19.282Z,-0.15
2018-02-22T04:44:19.284Z,-0.13
2018-02-22T04:45:19.282Z,-0.13
2018-02-22T04:46:19.285Z,-0.22
2018-02-22T04:47:19.278Z,-0.18
2018-02-22T04:48:19.283Z,-0.13
2018-02-22T04:49:19.279Z,-0.19
2018-02-22T04:50:19.284Z,-0.16
2018-02-22T04:51:19.274Z,-0.13
2018-02-22T04:52:19.273Z,-0.15
2018-02-22T04:53:19.279Z,-0.16
2018-02-22T04:54:19.279Z,-0.15
2018-02-22T04:55:19.276Z,-0.06
2018-02-22T04:56:19.279Z,-0.08
2018-02-22T04:57:19.275Z,-0.19
2018-02-22T04:58:19.270Z,-0.09
2018-02-22T04:59:19.281Z,-0.13
2018-02-22T05:00:19.274Z,-0.13
2018-02-22T05:01:19.273Z,0.00
2018-02-22T05:02:19.270Z,-0.15
2018-02-22T05:03:19.269Z,-0.13
2018-02-22T05:04:19.272Z,0.00
2018-02-22T05:05:19.266Z,-0.16
2018-02-22T05:06:19.265Z,-0.13
2018-02-22T05:07:19.263Z,-0.09
2018-02-22T05:08:19.266Z,-0.15
2018-02-22T05:09:19.266Z,-0.12
2018-02-22T05:10:19.268Z,-0.09
2018-02-22T05:11:19.273Z,-0.12
2018-02-22T05:12:19.264Z,-0.16
2018-02-22T05:13:19.263Z,-0.15
2018-02-22T05:14:19.257Z,-0.22
2018-02-22T05:15:19.260Z,-0.16
2018-02-22T05:16:19.266Z,-0.22
2018-02-22T05:17:19.309Z,-0.18
2018-02-22T05:18:19.284Z,-0.19
2018-02-22T05:19:19.313Z,-0.15
2018-02-22T05:20:19.263Z,-0.19
2018-02-22T05:21:19.250Z,-0.18
2018-02-22T05:22:19.257Z,-0.15
2018-02-22T05:23:19.257Z,-0.23
2018-02-22T05:24:19.255Z,-0.22
2018-02-22T05:25:19.265Z,-0.12
2018-02-22T05:26:19.259Z,-0.22
2018-02-22T05:27:19.254Z,-0.19
2018-02-22T05:28:19.253Z,-0.19
2018-02-22T05:29:19.285Z,-0.15
2018-02-22T05:30:19.248Z,-0.15
2018-02-22T05:31:19.252Z,-0.09
2018-02-22T05:32:19.250Z,-0.08
2018-02-22T05:33:19.254Z,-0.11
2018-02-22T05:34:19.275Z,-0.12
2018-02-22T05:35:19.253Z,-0.11
2018-02-22T05:36:19.245Z,-0.11
2018-02-22T05:37:19.252Z,-0.13
2018-02-22T05:38:19.246Z,-0.09
2018-02-22T05:39:19.246Z,-0.15
2018-02-22T05:40:19.247Z,-0.16
2018-02-22T05:41:19.245Z,-0.09
2018-02-22T05:42:19.418Z,-0.09
2018-02-22T05:43:19.240Z,-0.15
2018-02-22T05:44:19.243Z,-0.11
2018-02-22T05:45:19.248Z,0.00
2018-02-22T05:46:19.249Z,-0.01
2018-02-22T05:47:19.237Z,0.00
2018-02-22T05:48:19.270Z,-0.01
2018-02-22T05:49:19.240Z,-0.05
2018-02-22T05:50:19.234Z,0.02
2018-02-22T05:51:19.238Z,0.00
2018-02-22T05:52:19.245Z,0.00
2018-02-22T05:53:19.231Z,0.02
2018-02-22T05:54:19.236Z,0.00
2018-02-22T05:55:19.283Z,-0.06
2018-02-22T05:56:19.240Z,-0.13
2018-02-22T05:57:19.232Z,-0.01
2018-02-22T05:58:19.234Z,-0.01
2018-02-22T05:59:19.231Z,0.00
2018-02-22T06:00:19.232Z,-0.05
2018-02-22T06:01:19.223Z,-0.13
2018-02-22T06:02:19.232Z,-0.04
2018-02-22T06:03:19.229Z,0.03
2018-02-22T06:04:19.231Z,0.03
2018-02-22T06:05:19.225Z,-0.01
2018-02-22T06:06:19.228Z,0.02
2018-02-22T06:07:19.223Z,0.05
2018-02-22T06:08:19.227Z,-0.01
2018-02-22T06:09:19.228Z,0.00
2018-02-22T06:10:19.222Z,0.03
2018-02-22T06:11:19.224Z,-0.12
2018-02-22T06:12:19.223Z,-0.15
2018-02-22T06:13:19.222Z,0.05
2018-02-22T06:14:19.223Z,0.05
2018-02-22T06:15:19.221Z,0.00
2018-02-22T06:16:19.219Z,0.02
2018-02-22T06:17:19.220Z,-0.06
2018-02-22T06:18:19.217Z,0.00
2018-02-22T06:19:19.234Z,-0.01
2018-02-22T06:20:19.224Z,0.02
2018-02-22T06:21:19.221Z,0.02
2018-02-22T06:22:19.214Z,-0.01
2018-02-22T06:23:19.217Z,0.03
2018-02-22T06:24:19.215Z,0.03
2018-02-22T06:25:19.222Z,-0.01
2018-02-22T06:26:19.213Z,-0.04
2018-02-22T06:27:19.212Z,-0.06
2018-02-22T06:28:19.215Z,-0.04
2018-02-22T06:29:19.217Z,0.05
2018-02-22T06:30:19.211Z,0.03
2018-02-22T06:31:19.209Z,-0.01
2018-02-22T06:32:19.209Z,-0.01
2018-02-22T06:33:19.211Z,-0.01
2018-02-22T06:34:19.210Z,0.03
2018-02-22T06:35:19.206Z,0.09
2018-02-22T06:36:19.211Z,0.05
2018-02-22T06:37:19.206Z,0.10
2018-02-22T06:38:19.203Z,0.03
2018-02-22T06:39:19.202Z,0.03
2018-02-22T06:40:19.206Z,0.05
2018-02-22T06:41:19.204Z,0.03
2018-02-22T06:42:19.214Z,0.03
2018-02-22T06:43:19.207Z,0.09
2018-02-22T06:44:19.201Z,0.06
2018-02-22T06:45:19.202Z,0.03
2018-02-22T06:46:19.199Z,0.07
2018-02-22T06:47:19.200Z,0.10
2018-02-22T06:48:19.198Z,0.07
2018-02-22T06:49:19.200Z,0.07
2018-02-22T06:50:19.198Z,0.13
2018-02-22T06:51:19.200Z,0.09
2018-02-22T06:52:19.198Z,0.20
2018-02-22T06:53:19.198Z,0.10
2018-02-22T06:54:19.192Z,0.21
2018-02-22T06:55:19.194Z,0.18
2018-02-22T06:56:19.195Z,0.23
2018-02-22T06:57:19.197Z,0.21
2018-02-22T06:58:19.192Z,0.20
2018-02-22T06:59:19.198Z,0.27
2018-02-22T07:00:19.200Z,0.25
2018-02-22T07:01:19.193Z,0.28
2018-02-22T07:02:19.191Z,0.30
2018-02-22T07:03:19.192Z,0.30
2018-02-22T07:04:19.194Z,0.34
2018-02-22T07:05:19.190Z,0.36
2018-02-22T07:06:19.194Z,0.39
2018-02-22T07:07:19.189Z,0.38
2018-02-22T07:08:19.190Z,0.39
2018-02-22T07:09:19.187Z,0.36
2018-02-22T07:10:19.190Z,0.45
2018-02-22T07:11:19.185Z,0.31
2018-02-22T07:12:19.192Z,0.38
2018-02-22T07:13:19.182Z,0.46
2018-02-22T07:14:19.189Z,0.43
2018-02-22T07:15:19.186Z,0.48
2018-02-22T07:16:19.186Z,0.46
2018-02-22T07:17:19.185Z,0.51
2018-02-22T07:18:19.187Z,0.45
2018-02-22T07:19:19.183Z,0.45
2018-02-22T07:20:19.184Z,0.49
2018-02-22T07:21:19.184Z,0.52
2018-02-22T07:22:19.877Z,0.49
2018-02-22T07:23:19.182Z,0.45
2018-02-22T07:24:19.181Z,0.49
2018-02-22T07:25:19.189Z,0.53
2018-02-22T07:26:19.199Z,0.57
2018-02-22T07:27:19.184Z,0.57
2018-02-22T07:28:19.212Z,0.57
2018-02-22T07:29:19.183Z,0.62
2018-02-22T07:30:19.179Z,0.62
2018-02-22T07:31:19.182Z,0.61
2018-02-22T07:32:19.184Z,0.71
2018-02-22T07:33:19.178Z,0.75
2018-02-22T07:34:19.177Z,0.76
2018-02-22T07:35:19.183Z,0.80
2018-02-22T07:36:19.177Z,0.89
2018-02-22T07:37:19.883Z,0.85
2018-02-22T07:38:19.177Z,1.01
2018-02-22T07:39:19.181Z,1.03
2018-02-22T07:40:19.280Z,1.14
2018-02-22T07:41:19.187Z,1.12
2018-02-22T07:42:19.179Z,1.12
2018-02-22T07:43:19.228Z,1.16
2018-02-22T07:44:19.181Z,1.21
2018-02-22T07:45:19.182Z,1.21
2018-02-22T07:46:19.177Z,1.26
2018-02-22T07:47:19.175Z,1.19
2018-02-22T07:48:19.180Z,1.18
2018-02-22T07:49:19.183Z,1.34
2018-02-22T07:50:19.197Z,1.24
2018-02-22T07:51:19.181Z,1.37
2018-02-22T07:52:19.181Z,1.36
2018-02-22T07:53:19.230Z,1.32
2018-02-22T07:54:19.182Z,1.34
2018-02-22T07:55:19.178Z,1.39
2018-02-22T07:56:19.182Z,1.50
2018-02-22T07:57:19.180Z,1.50
2018-02-22T07:58:19.250Z,1.44
2018-02-22T07:59:19.179Z,1.55
2018-02-22T08:00:19.180Z,1.55
2018-02-22T08:01:19.184Z,1.62
2018-02-22T08:02:19.217Z,1.73
2018-02-22T08:03:19.224Z,1.89
2018-02-22T08:04:19.280Z,2.49
2018-02-22T08:05:19.268Z,3.36
2018-02-22T08:06:19.271Z,4.15
2018-02-22T08:07:19.268Z,4.88
2018-02-22T08:08:19.184Z,4.98
2018-02-22T08:09:19.188Z,4.95
2018-02-22T08:10:19.192Z,4.91
2018-02-22T08:11:19.192Z,5.23
2018-02-22T08:12:19.192Z,5.48
2018-02-22T08:13:19.194Z,5.73
2018-02-22T08:14:19.196Z,5.68
2018-02-22T08:15:19.221Z,5.85
2018-02-22T08:16:19.207Z,6.32
2018-02-22T08:17:19.203Z,6.63
2018-02-22T08:18:19.214Z,6.80
2018-02-22T08:19:19.212Z,7.02
2018-02-22T08:20:19.221Z,6.80
2018-02-22T08:21:19.221Z,7.02
2018-02-22T08:22:19.243Z,6.80
2018-02-22T08:23:19.232Z,7.01
2018-02-22T08:24:19.246Z,7.22
2018-02-22T08:25:19.246Z,7.27
2018-02-22T08:26:19.247Z,7.34
2018-02-22T08:27:19.249Z,7.42
2018-02-22T08:28:19.263Z,7.60
2018-02-22T08:29:19.263Z,7.66
2018-02-22T08:30:19.270Z,7.79
2018-02-22T08:31:19.279Z,7.67
2018-02-22T08:32:19.282Z,7.74
2018-02-22T08:33:19.291Z,7.58
2018-02-22T08:34:19.295Z,7.26
2018-02-22T08:35:19.300Z,7.32
2018-02-22T08:36:19.312Z,6.99
2018-02-22T08:37:19.317Z,7.13
2018-02-22T08:38:19.322Z,7.24
2018-02-22T08:39:19.332Z,6.94
2018-02-22T08:40:19.335Z,7.09
2018-02-22T08:41:19.342Z,7.23
2018-02-22T08:42:19.355Z,7.22
2018-02-22T08:43:19.411Z,7.29
2018-02-22T08:44:19.372Z,7.29
2018-02-22T08:45:19.378Z,7.24
2018-02-22T08:46:19.383Z,7.49
2018-02-22T08:47:19.391Z,8.03
2018-02-22T08:48:19.399Z,7.99
2018-02-22T08:49:19.411Z,7.84
2018-02-22T08:50:19.420Z,7.93
2018-02-22T08:51:19.439Z,8.10
2018-02-22T08:52:19.433Z,8.03
2018-02-22T08:53:19.442Z,7.99
2018-02-22T08:54:19.458Z,8.08
2018-02-22T08:55:19.466Z,8.25
2018-02-22T08:56:19.471Z,8.30
2018-02-22T08:57:19.483Z,8.44
2018-02-22T08:58:19.495Z,8.58
2018-02-22T08:59:19.501Z,8.71
2018-02-22T09:00:19.512Z,8.45
2018-02-22T09:01:19.526Z,8.96
2018-02-22T09:02:19.531Z,8.68
2018-02-22T09:03:19.566Z,8.50
2018-02-22T09:04:19.550Z,8.47
2018-02-22T09:05:19.560Z,8.76
2018-02-22T09:06:19.571Z,8.69
2018-02-22T09:07:19.578Z,8.20
2018-02-22T09:08:19.602Z,7.92
2018-02-22T09:09:19.602Z,8.17
2018-02-22T09:10:19.609Z,8.14
2018-02-22T09:11:19.692Z,8.29
2018-02-22T09:12:19.709Z,8.33
2018-02-22T09:13:19.731Z,8.44
2018-02-22T09:14:20.370Z,8.26
2018-02-22T09:15:19.676Z,8.30
2018-02-22T09:16:19.722Z,8.76
2018-02-22T09:17:19.749Z,8.39
2018-02-22T09:18:19.720Z,8.21
2018-02-22T09:19:19.711Z,8.39
2018-02-22T09:20:19.721Z,8.28
2018-02-22T09:21:19.731Z,8.30
2018-02-22T09:22:19.739Z,8.45
2018-02-22T09:23:19.761Z,8.26
2018-02-22T09:24:19.764Z,8.45
2018-02-22T09:25:19.778Z,8.66
2018-02-22T09:26:19.799Z,8.60
2018-02-22T09:27:19.811Z,8.63
2018-02-22T09:28:19.820Z,8.73
2018-02-22T09:29:19.910Z,8.76
2018-02-22T09:30:19.903Z,8.54
2018-02-22T09:31:19.916Z,8.75
2018-02-22T09:32:19.874Z,9.02
2018-02-22T09:33:19.866Z,8.79
2018-02-22T09:34:19.881Z,9.09
2018-02-22T09:35:19.965Z,9.18
2018-02-22T09:36:19.997Z,9.35
2018-02-22T09:37:19.905Z,9.48
2018-02-22T09:38:20.031Z,9.68
2018-02-22T09:39:19.933Z,9.60
2018-02-22T09:40:19.945Z,9.52
2018-02-22T09:41:20.031Z,9.21
2018-02-22T09:42:20.057Z,9.16
2018-02-22T09:43:20.065Z,9.05
2018-02-22T09:44:20.074Z,8.78
2018-02-22T09:45:20.047Z,8.73
2018-02-22T09:46:20.055Z,8.90
2018-02-22T09:47:20.030Z,9.04
2018-02-22T09:48:20.139Z,9.02
2018-02-22T09:49:20.130Z,8.96
2018-02-22T09:50:20.204Z,8.63
2018-02-22T09:51:20.116Z,8.57
2018-02-22T09:52:20.172Z,8.83
2018-02-22T09:53:20.177Z,8.72
2018-02-22T09:54:20.188Z,8.63
2018-02-22T09:55:20.219Z,8.30
2018-02-22T09:56:20.241Z,8.22
2018-02-22T09:57:20.246Z,8.26
2018-02-22T09:58:20.175Z,8.28
2018-02-22T09:59:20.176Z,8.47
2018-02-22T10:00:20.188Z,8.60
2018-02-22T10:01:20.198Z,8.65
2018-02-22T10:02:20.208Z,8.91
2018-02-22T10:03:20.221Z,8.96
2018-02-22T10:04:20.233Z,9.21
2018-02-22T10:05:20.247Z,9.05
2018-02-22T10:06:20.330Z,8.91
2018-02-22T10:07:20.271Z,8.68
2018-02-22T10:08:20.273Z,8.47
2018-02-22T10:09:20.292Z,8.44
2018-02-22T10:10:20.297Z,8.47
2018-02-22T10:11:20.322Z,8.20
2018-02-22T10:12:20.345Z,7.94
2018-02-22T10:13:20.346Z,8.03
2018-02-22T10:14:20.348Z,7.87
2018-02-22T10:15:20.510Z,7.71
2018-02-22T10:16:20.425Z,7.92
2018-02-22T10:17:20.479Z,8.07
2018-02-22T10:18:20.485Z,8.32
2018-02-22T10:19:20.506Z,8.32
2018-02-22T10:20:20.503Z,8.36
2018-02-22T10:21:20.476Z,8.08
2018-02-22T10:22:20.554Z,8.14
2018-02-22T10:23:20.537Z,7.82
2018-02-22T10:24:20.536Z,7.75
2018-02-22T10:25:20.461Z,7.62
2018-02-22T10:26:20.534Z,7.71
2018-02-22T10:27:20.568Z,7.77
2018-02-22T10:28:20.518Z,7.85
2018-02-22T10:29:20.562Z,7.69
2018-02-22T10:30:20.566Z,7.62
2018-02-22T10:31:20.587Z,7.74
2018-02-22T10:32:20.587Z,7.72
2018-02-22T10:33:20.597Z,7.82
2018-02-22T10:34:20.600Z,7.56
2018-02-22T10:35:20.611Z,7.26
2018-02-22T10:36:20.623Z,7.16
2018-02-22T10:37:20.633Z,7.37
2018-02-22T10:38:20.647Z,7.45
2018-02-22T10:39:20.629Z,7.55
2018-02-22T10:40:20.681Z,7.49
2018-02-22T10:41:20.621Z,7.69
2018-02-22T10:42:20.671Z,7.71
2018-02-22T10:43:20.695Z,7.71
2018-02-22T10:44:20.696Z,7.71
2018-02-22T10:45:20.703Z,7.47
2018-02-22T10:46:20.671Z,7.47
2018-02-22T10:47:20.676Z,7.49
2018-02-22T10:48:20.745Z,7.49
2018-02-22T10:49:20.711Z,7.27
2018-02-22T10:50:20.758Z,7.38
2018-02-22T10:51:20.705Z,7.29
2018-02-22T10:52:20.731Z,7.24
2018-02-22T10:53:20.766Z,7.19
2018-02-22T10:54:20.784Z,7.15
2018-02-22T10:55:20.792Z,7.31
2018-02-22T10:56:20.750Z,7.50
2018-02-22T10:57:20.806Z,7.53
2018-02-22T10:58:20.814Z,7.24
2018-02-22T10:59:20.824Z,7.19
2018-02-22T11:00:20.828Z,7.15
2018-02-22T11:01:20.844Z,7.24
2018-02-22T11:02:20.867Z,7.17
2018-02-22T11:03:20.860Z,7.12
2018-02-22T11:04:20.860Z,7.01
2018-02-22T11:05:20.828Z,7.23
2018-02-22T11:06:20.873Z,7.22
2018-02-22T11:07:20.892Z,7.27
2018-02-22T11:08:20.842Z,7.05
2018-02-22T11:09:20.889Z,7.01
2018-02-22T11:10:20.858Z,7.13
2018-02-22T11:11:20.868Z,7.05
2018-02-22T11:12:20.876Z,6.89
2018-02-22T11:13:20.887Z,6.94
2018-02-22T11:14:20.888Z,6.95
2018-02-22T11:15:20.897Z,6.97
2018-02-22T11:16:20.908Z,7.01
2018-02-22T11:17:20.912Z,7.04
2018-02-22T11:18:20.916Z,7.12
2018-02-22T11:19:20.921Z,7.01
2018-02-22T11:20:20.934Z,6.94
2018-02-22T11:21:20.941Z,6.90
2018-02-22T11:22:20.945Z,6.90
2018-02-22T11:23:20.949Z,6.83
2018-02-22T11:24:20.962Z,6.76
2018-02-22T11:25:20.971Z,6.76
2018-02-22T11:26:20.978Z,6.63
2018-02-22T11:27:20.979Z,6.65
2018-02-22T11:28:20.988Z,6.66
2018-02-22T11:29:21.002Z,6.73
2018-02-22T11:30:21.009Z,6.71
2018-02-22T11:31:21.005Z,6.69
2018-02-22T11:32:21.022Z,6.73
2018-02-22T11:33:21.045Z,6.86
2018-02-22T11:34:21.046Z,6.87
2018-02-22T11:35:21.029Z,6.77
2018-02-22T11:36:21.044Z,6.65
2018-02-22T11:37:21.046Z,6.65
2018-02-22T11:38:21.051Z,6.63
2018-02-22T11:39:21.060Z,6.66
2018-02-22T11:40:21.066Z,6.59
2018-02-22T11:41:21.069Z,6.71
2018-02-22T11:42:21.075Z,6.65
2018-02-22T11:43:21.078Z,6.65
2018-02-22T11:44:21.091Z,6.71
2018-02-22T11:45:21.091Z,6.71
2018-02-22T11:46:21.100Z,6.62
2018-02-22T11:47:21.099Z,6.53
2018-02-22T11:48:21.114Z,6.59
2018-02-22T11:49:21.139Z,6.56
2018-02-22T11:50:21.178Z,6.48
2018-02-22T11:51:21.122Z,6.58
2018-02-22T11:52:21.159Z,6.43
2018-02-22T11:53:21.138Z,6.43
2018-02-22T11:54:21.145Z,6.18
2018-02-22T11:55:21.150Z,6.33
2018-02-22T11:56:21.157Z,6.25
2018-02-22T11:57:21.164Z,6.43
2018-02-22T11:58:21.173Z,6.21
2018-02-22T11:59:21.168Z,6.22
2018-02-22T12:00:21.180Z,6.26
2018-02-22T12:01:21.181Z,6.36
2018-02-22T12:02:21.184Z,6.47
2018-02-22T12:03:21.188Z,6.38
2018-02-22T12:04:21.195Z,6.33
2018-02-22T12:05:21.202Z,6.36
2018-02-22T12:06:21.204Z,6.32
2018-02-22T12:07:21.210Z,6.14
2018-02-22T12:08:21.213Z,6.18
2018-02-22T12:09:21.215Z,6.14
2018-02-22T12:10:21.223Z,6.16
2018-02-22T12:11:21.294Z,6.16
2018-02-22T12:12:21.235Z,6.14
2018-02-22T12:13:21.234Z,6.22
2018-02-22T12:14:21.242Z,6.25
2018-02-22T12:15:21.245Z,6.11
2018-02-22T12:16:21.252Z,6.21
2018-02-22T12:17:21.256Z,6.26
2018-02-22T12:18:21.258Z,6.14
2018-02-22T12:19:21.293Z,6.01
2018-02-22T12:20:21.272Z,5.78
2018-02-22T12:21:21.269Z,5.82
2018-02-22T12:22:21.284Z,5.88
2018-02-22T12:23:21.286Z,6.04
2018-02-22T12:24:21.291Z,5.95
2018-02-22T12:25:21.297Z,5.91
2018-02-22T12:26:21.298Z,5.83
2018-02-22T12:27:21.289Z,5.93
2018-02-22T12:28:21.299Z,5.86
2018-02-22T12:29:21.318Z,5.86
2018-02-22T12:30:21.343Z,5.82
2018-02-22T12:31:21.309Z,5.85
2018-02-22T12:32:21.315Z,5.83
2018-02-22T12:33:21.315Z,6.06
2018-02-22T12:34:21.339Z,6.00
2018-02-22T12:35:21.322Z,6.03
2018-02-22T12:36:21.345Z,6.00
2018-02-22T12:37:21.343Z,5.89
2018-02-22T12:38:21.348Z,5.85
2018-02-22T12:39:21.343Z,5.88
2018-02-22T12:40:21.341Z,5.89
2018-02-22T12:41:21.344Z,5.88
2018-02-22T12:42:21.350Z,5.95
2018-02-22T12:43:21.359Z,5.89
2018-02-22T12:44:21.358Z,5.81
2018-02-22T12:45:21.366Z,5.82
2018-02-22T12:46:21.368Z,5.78
2018-02-22T12:47:21.364Z,5.86
2018-02-22T12:48:21.369Z,5.91
2018-02-22T12:49:21.372Z,6.06
2018-02-22T12:50:21.377Z,5.89
2018-02-22T12:51:21.379Z,5.77
2018-02-22T12:52:21.389Z,5.82
2018-02-22T12:53:21.399Z,5.83
2018-02-22T12:54:21.384Z,5.89
2018-02-22T12:55:21.388Z,5.85
2018-02-22T12:56:21.397Z,5.86
2018-02-22T12:57:21.407Z,5.93
2018-02-22T12:58:21.402Z,5.85
2018-02-22T12:59:21.404Z,5.92
2018-02-22T13:00:21.407Z,5.95
2018-02-22T13:01:21.412Z,5.86
2018-02-22T13:02:21.411Z,5.82
2018-02-22T13:03:21.418Z,5.81
2018-02-22T13:04:21.434Z,5.64
2018-02-22T13:05:21.431Z,5.60
2018-02-22T13:06:21.443Z,5.46
2018-02-22T13:07:21.429Z,5.46
2018-02-22T13:08:21.434Z,5.55
2018-02-22T13:09:21.428Z,5.52
2018-02-22T13:10:21.439Z,5.52
2018-02-22T13:11:21.440Z,5.68
2018-02-22T13:12:21.455Z,5.53
2018-02-22T13:13:21.445Z,5.45
2018-02-22T13:14:21.447Z,5.52